Resolute

Airport
ICAO code: 
CYRB
Summary
ICAO Region: 
NAM
Territory: 
Location: 
Resolute, Nunavut,
Coordinates: 
Aerial View: 
74° 43' 0.998" N, 94° 58' 9.998" W
Airport BS: 
Non Avian Wildlife Hazards to Aircraft
Airport CFIT: 
Altimeter Temperature Error Correction
Airport GND: 
Aircraft Ground De/Anti Icing
Airport WX: 
Fog
Metar
Observation
CYRB 272000Z 13004KT 20SM IC FEW100 M26/M29 A3025 RMK AC2 SLP258
Station
Resolute, N. W. T.
Date/Time
2021-11-27 20:00:00
Wind direction
130°
Wind speed
04 kts
Lowest cloud amount
few clouds
Temperature
-26°C
Dew point
-29°C
Humidity
75%
Weather condition
ice crystals

Description

Airport serving Resolute, Nunavut.

Climatology

Tundra climate (Köppen climate classification ET) - warmest month has an average temperature of 0 - 10 degrees C.

Runways

Designator Length Width Surface Rops
17T/35T 1981 61 GVL No/No
Airport map: 
Aerial View: 

Accidents and Serious Incidents at or in the vicinity of CYRB

SKYbrary Partners:

Safety knowledge contributed by: